NCAR-RAP Real-Time Weather Data

Output produced by METARs form (20 January 2018  03:40 UTC)
found at http://weather.rap.ucar.edu/surface/
 
Conditions at: KHQZ observed 20 January 2018  03:35 UTC
Temperature: 10.1°C (50°F)
Dewpoint: 3.9°C (39°F) [RH = 65%]
Pressure (altimeter): 30.07 inches Hg (1018.4 mb)
Winds: from the SSE (150 degrees) at 8 MPH (7 knots; 3.6 m/s)
Visibility: 10 or more miles (16+ km)
Ceiling: 2500 feet AGL
Clouds: overcast cloud deck at 2500 feet AGL
Present Weather: automated observation with no human augmentation;
there may or may not be significant weather present at this time
KHQZ 200335Z AUTO 15007KT 10SM OVC025 10/04 A3007 RMK AO1 T01010039